Ana Sayfa
METAR-TAF:

METAR-TAF

Havaalanları :

Brownwood, Teksas, Amerika Birleşik Devletleri

Enlem: 31-48N, Boylam: 098-57W, yükseklik: 422 m

Güncel hava durumu gözlemi

Rapor saat 02:35 UTC de 26 dakika önce yapıldı.
Rüzgar güneydan 4 kt
Sıcaklık 7°C
Nem 39%
Basınç 1024 hPa
Görüş mesafesi: 16.1 km
3400 ft yükseklikte az bulutlu
4400 ft yükseklikte az bulutlu

METAR: KBWD 280235Z AUTO 17004KT 10SM FEW034 FEW044 07/M06 A3024 RMK AO1

Saat: 21:01 (03:01 UTC)


TAF: eksik

4.000'den fazla havaalanı için hava durumu gözlemleri ve tahminleri (METAR ve TAF raporları).

Kullanılabilir istasyonlar harita üzerinde sarı ve kırmızı noktalarla gösterilir.

İstasyonun adını görmek için fareyi noktanın üzerinde gezdirin.

Sonrasında hava gözlem ve tahminlerini görmek için tıklayın.

Haritayı değiştirmek için: yaklaştırmak için siyah artı işaretli yeşil düğmeye ve uzaklaştırmak için de eksi işaretli düğmeye hızla tıklayın; bitişik haritalar için yeşil okları kullanın.


METAR-TAF: